createdAt,value
2022-11-17T00:00:42.486Z,10.51
2022-11-17T00:03:16.222Z,10.52
2022-11-17T00:05:44.643Z,10.53
2022-11-17T00:08:11.912Z,10.51
2022-11-17T00:10:38.964Z,10.46
2022-11-17T00:13:24.186Z,10.44
2022-11-17T00:15:51.305Z,10.38
2022-11-17T00:18:36.870Z,10.32
2022-11-17T00:21:19.735Z,10.26
2022-11-17T00:23:47.661Z,10.22
2022-11-17T00:26:26.553Z,10.18
2022-11-17T00:29:03.013Z,10.08
2022-11-17T00:31:51.569Z,10.03
2022-11-17T00:34:21.925Z,9.95
2022-11-17T00:36:52.283Z,9.91
2022-11-17T00:39:22.165Z,9.86
2022-11-17T00:41:49.623Z,9.81
2022-11-17T00:44:16.847Z,9.77
2022-11-17T00:46:43.806Z,9.73
2022-11-17T00:49:11.590Z,9.69
2022-11-17T00:51:39.058Z,9.67
2022-11-17T00:54:07.862Z,9.67
2022-11-17T00:56:34.834Z,9.65
2022-11-17T00:59:01.954Z,9.62
2022-11-17T01:01:29.969Z,9.62
2022-11-17T01:04:05.190Z,9.60
2022-11-17T01:06:49.651Z,9.58
2022-11-17T01:09:21.008Z,9.53
2022-11-17T01:11:50.424Z,9.52
2022-11-17T01:14:25.559Z,9.56
2022-11-17T01:16:53.330Z,9.59
2022-11-17T01:19:21.695Z,9.60
2022-11-17T01:21:48.741Z,9.63
2022-11-17T01:24:17.043Z,9.65
2022-11-17T01:26:45.686Z,9.68
2022-11-17T01:29:17.107Z,9.70
2022-11-17T01:31:49.074Z,9.71
2022-11-17T01:34:16.019Z,9.72
2022-11-17T01:37:02.881Z,9.72
2022-11-17T01:39:31.231Z,9.70
2022-11-17T01:42:02.649Z,9.71
2022-11-17T01:44:41.795Z,9.71
2022-11-17T01:47:21.055Z,9.71
2022-11-17T01:49:51.837Z,9.71
2022-11-17T01:52:18.906Z,9.70
2022-11-17T01:54:48.486Z,9.67
2022-11-17T01:57:26.377Z,9.65
2022-11-17T02:00:06.058Z,9.64
2022-11-17T02:02:35.659Z,9.64
2022-11-17T02:05:18.694Z,9.64
2022-11-17T02:07:49.374Z,9.63
2022-11-17T02:10:16.779Z,9.63
2022-11-17T02:12:45.008Z,9.68
2022-11-17T02:15:12.009Z,9.71
2022-11-17T02:17:43.997Z,9.73
2022-11-17T02:20:23.696Z,9.76
2022-11-17T02:23:23.323Z,9.77
2022-11-17T02:26:15.260Z,9.76
2022-11-17T02:28:57.065Z,9.76
2022-11-17T02:32:02.432Z,9.77
2022-11-17T02:34:59.318Z,9.76
2022-11-17T02:37:59.000Z,9.76
2022-11-17T02:40:39.968Z,9.77
2022-11-17T02:43:32.340Z,9.77
2022-11-17T02:46:10.739Z,9.77
2022-11-17T02:48:44.754Z,9.78
2022-11-17T02:51:20.577Z,9.78
2022-11-17T02:53:50.895Z,9.81
2022-11-17T02:56:17.857Z,9.81
2022-11-17T02:58:46.224Z,9.82
2022-11-17T03:01:22.292Z,9.86
2022-11-17T03:04:21.821Z,9.86
2022-11-17T03:07:07.409Z,9.87
2022-11-17T03:10:12.007Z,9.88
2022-11-17T03:13:17.943Z,9.87
2022-11-17T03:16:12.685Z,9.89
2022-11-17T03:18:55.846Z,9.89
2022-11-17T03:21:36.275Z,9.88
2022-11-17T03:24:19.534Z,9.88
2022-11-17T03:27:00.505Z,9.86
2022-11-17T03:29:31.708Z,9.85
2022-11-17T03:32:03.130Z,9.82
2022-11-17T03:34:45.657Z,9.81
2022-11-17T03:37:15.527Z,9.81
2022-11-17T03:39:51.782Z,9.79
2022-11-17T03:42:27.278Z,9.78
2022-11-17T03:45:01.318Z,9.79
2022-11-17T03:47:30.929Z,9.78
2022-11-17T03:50:23.711Z,9.79
2022-11-17T03:52:51.735Z,9.80
2022-11-17T03:55:18.693Z,9.80
2022-11-17T03:58:09.423Z,9.80
2022-11-17T04:00:38.745Z,9.80
2022-11-17T04:03:06.226Z,9.79
2022-11-17T04:05:33.182Z,9.77
2022-11-17T04:08:00.452Z,9.76
2022-11-17T04:10:27.626Z,9.76
2022-11-17T04:13:13.598Z,9.74
2022-11-17T04:15:59.187Z,9.73
2022-11-17T04:18:27.015Z,9.71
2022-11-17T04:20:57.008Z,9.72
2022-11-17T04:23:25.367Z,9.70
2022-11-17T04:26:14.221Z,9.72
2022-11-17T04:28:48.970Z,9.72
2022-11-17T04:31:19.892Z,9.73
2022-11-17T04:33:47.844Z,9.73
2022-11-17T04:36:19.170Z,9.70
2022-11-17T04:38:52.753Z,9.68
2022-11-17T04:41:41.330Z,9.68
2022-11-17T04:44:10.905Z,9.66
2022-11-17T04:46:39.993Z,9.64
2022-11-17T04:49:08.404Z,9.64
2022-11-17T04:51:36.513Z,9.64
2022-11-17T04:54:05.064Z,9.64
2022-11-17T04:56:32.116Z,9.63
2022-11-17T04:58:59.278Z,9.64
2022-11-17T05:01:27.767Z,9.61
2022-11-17T05:04:03.914Z,9.61
2022-11-17T05:06:44.150Z,9.61
2022-11-17T05:09:14.256Z,9.60
2022-11-17T05:12:00.981Z,9.59
2022-11-17T05:14:29.061Z,9.59
2022-11-17T05:17:09.513Z,9.61
2022-11-17T05:19:46.661Z,9.63
2022-11-17T05:22:39.478Z,9.67
2022-11-17T05:25:07.490Z,9.67
2022-11-17T05:27:35.070Z,9.70
2022-11-17T05:30:06.965Z,9.73
2022-11-17T05:32:34.636Z,9.75
2022-11-17T05:35:01.695Z,9.76
2022-11-17T05:37:28.656Z,9.79
2022-11-17T05:39:55.576Z,9.79
2022-11-17T05:42:25.116Z,9.80
2022-11-17T05:45:14.580Z,9.80
2022-11-17T05:47:41.698Z,9.83
2022-11-17T05:50:09.109Z,9.86
2022-11-17T05:52:36.051Z,9.87
2022-11-17T05:55:03.015Z,9.87
2022-11-17T05:57:32.409Z,9.95
2022-11-17T06:00:04.548Z,9.98
2022-11-17T06:02:47.315Z,10.03
2022-11-17T06:05:19.830Z,10.06
2022-11-17T06:07:47.997Z,10.09
2022-11-17T06:10:15.058Z,10.12
2022-11-17T06:12:42.004Z,10.13
2022-11-17T06:15:09.781Z,10.15
2022-11-17T06:17:47.940Z,10.15
2022-11-17T06:20:26.534Z,10.16
2022-11-17T06:22:55.656Z,10.15
2022-11-17T06:25:22.860Z,10.15
2022-11-17T06:27:50.900Z,10.15
2022-11-17T06:30:18.634Z,10.16
2022-11-17T06:32:46.484Z,10.16
2022-11-17T06:35:16.220Z,10.17
2022-11-17T06:37:43.604Z,10.17
2022-11-17T06:40:13.227Z,10.19
2022-11-17T06:42:59.150Z,10.23
2022-11-17T06:45:26.450Z,10.25
2022-11-17T06:47:54.034Z,10.28
2022-11-17T06:50:22.445Z,10.33
2022-11-17T06:52:49.395Z,10.36
2022-11-17T06:55:16.438Z,10.40
2022-11-17T06:57:46.520Z,10.39
2022-11-17T07:00:16.440Z,10.43
2022-11-17T07:02:43.469Z,10.45
2022-11-17T07:05:10.671Z,10.47
2022-11-17T07:07:37.709Z,10.50
2022-11-17T07:10:05.049Z,10.53
2022-11-17T07:12:33.462Z,10.55
2022-11-17T07:15:00.611Z,10.59
2022-11-17T07:17:28.971Z,10.61
2022-11-17T07:19:56.650Z,10.63
2022-11-17T07:22:23.596Z,10.66
2022-11-17T07:24:50.668Z,10.69
2022-11-17T07:27:17.625Z,10.71
2022-11-17T07:29:44.619Z,10.73
2022-11-17T07:32:13.943Z,10.76
2022-11-17T07:34:41.445Z,10.80
2022-11-17T07:37:08.474Z,10.85
2022-11-17T07:39:35.441Z,10.87
2022-11-17T07:42:02.479Z,10.91
2022-11-17T07:44:29.413Z,10.93
2022-11-17T07:46:56.561Z,10.97
2022-11-17T07:49:23.866Z,11.00
2022-11-17T07:51:50.861Z,11.03
2022-11-17T07:54:17.955Z,11.07
2022-11-17T07:56:44.909Z,11.10
2022-11-17T07:59:14.979Z,11.11
2022-11-17T08:01:45.490Z,11.14
2022-11-17T08:04:12.466Z,11.15
2022-11-17T08:06:39.392Z,11.17
2022-11-17T08:09:07.143Z,11.19
2022-11-17T08:11:34.330Z,11.20
2022-11-17T08:14:01.318Z,11.21
2022-11-17T08:16:30.843Z,11.21
2022-11-17T08:18:58.221Z,11.22
2022-11-17T08:21:25.683Z,11.23
2022-11-17T08:23:54.928Z,11.23
2022-11-17T08:26:24.907Z,11.23
2022-11-17T08:28:57.904Z,11.25
2022-11-17T08:31:25.326Z,11.28
2022-11-17T08:33:52.298Z,11.29
2022-11-17T08:36:19.285Z,11.32
2022-11-17T08:38:46.227Z,11.34
2022-11-17T08:41:13.280Z,11.36
2022-11-17T08:43:40.215Z,11.38
2022-11-17T08:46:14.153Z,11.38
2022-11-17T08:48:41.225Z,11.38
2022-11-17T08:51:09.481Z,11.39
2022-11-17T08:53:36.438Z,11.40
2022-11-17T08:56:13.363Z,11.41
2022-11-17T08:58:45.013Z,11.42
2022-11-17T09:01:15.767Z,11.43
2022-11-17T09:03:45.884Z,11.43
2022-11-17T09:06:15.244Z,11.45
2022-11-17T09:08:46.260Z,11.48
2022-11-17T09:11:14.925Z,11.51
2022-11-17T09:13:42.175Z,11.55
2022-11-17T09:16:11.385Z,11.61
2022-11-17T09:18:39.981Z,11.67
2022-11-17T09:21:17.861Z,11.71
2022-11-17T09:23:44.986Z,11.77
2022-11-17T09:26:14.637Z,11.83
2022-11-17T09:28:45.198Z,11.87
2022-11-17T09:31:19.571Z,11.93
2022-11-17T09:33:47.210Z,11.98
2022-11-17T09:36:16.614Z,12.03
2022-11-17T09:38:44.338Z,12.05
2022-11-17T09:41:35.374Z,12.10
2022-11-17T09:44:23.469Z,12.13
2022-11-17T09:47:32.930Z,12.17
2022-11-17T09:50:31.179Z,12.16
2022-11-17T09:53:25.955Z,12.17
2022-11-17T09:56:07.410Z,12.15
2022-11-17T09:59:05.039Z,12.11
2022-11-17T10:01:32.170Z,12.03
2022-11-17T10:04:01.259Z,11.94
2022-11-17T10:06:31.863Z,11.81
2022-11-17T10:09:28.123Z,11.69
2022-11-17T10:12:14.627Z,11.58
2022-11-17T10:14:42.098Z,11.51
2022-11-17T10:17:10.784Z,11.44
2022-11-17T10:19:38.649Z,11.37
2022-11-17T10:22:05.720Z,11.28
2022-11-17T10:24:43.199Z,11.23
2022-11-17T10:27:32.323Z,11.17
2022-11-17T10:30:00.197Z,11.11
2022-11-17T10:32:30.561Z,11.05
2022-11-17T10:35:28.959Z,11.00
2022-11-17T10:38:20.146Z,10.95
2022-11-17T10:40:50.737Z,10.94
2022-11-17T10:43:28.571Z,10.91
2022-11-17T10:46:16.954Z,10.88
2022-11-17T10:49:04.901Z,10.83
2022-11-17T10:51:33.774Z,10.76
2022-11-17T10:54:15.344Z,10.68
2022-11-17T10:57:08.728Z,10.59
2022-11-17T10:59:56.888Z,10.54
2022-11-17T11:02:34.436Z,10.46
2022-11-17T11:05:18.018Z,10.42
2022-11-17T11:07:45.544Z,10.39
2022-11-17T11:10:27.658Z,10.36
2022-11-17T11:13:14.808Z,10.36
2022-11-17T11:15:42.007Z,10.35
2022-11-17T11:18:18.243Z,10.35
2022-11-17T11:21:17.086Z,10.34
2022-11-17T11:24:08.832Z,10.34
2022-11-17T11:27:37.069Z,10.34
2022-11-17T11:30:16.079Z,10.33
2022-11-17T11:33:01.016Z,10.33
2022-11-17T11:35:56.230Z,10.34
2022-11-17T11:39:00.733Z,10.36
2022-11-17T11:42:10.297Z,10.39
2022-11-17T11:45:04.815Z,10.42
2022-11-17T11:47:56.556Z,10.46
2022-11-17T11:50:28.056Z,10.51
2022-11-17T11:53:04.403Z,10.57
2022-11-17T11:55:35.900Z,10.61
2022-11-17T11:58:23.777Z,10.68
2022-11-17T12:01:05.730Z,10.77
2022-11-17T12:03:43.708Z,10.86
2022-11-17T12:06:42.000Z,10.96
2022-11-17T12:09:56.439Z,11.05
2022-11-17T12:12:33.826Z,11.11
2022-11-17T12:15:11.278Z,11.12
2022-11-17T12:17:53.019Z,11.14
2022-11-17T12:20:37.949Z,11.17
2022-11-17T12:23:35.867Z,11.18
2022-11-17T12:26:03.311Z,11.21
2022-11-17T12:28:41.073Z,11.27
2022-11-17T12:31:19.112Z,11.32
2022-11-17T12:33:51.998Z,11.37
2022-11-17T12:36:30.788Z,11.45
2022-11-17T12:39:09.311Z,11.49
2022-11-17T12:41:48.560Z,11.53
2022-11-17T12:44:37.389Z,11.58
2022-11-17T12:47:21.466Z,11.62
2022-11-17T12:50:20.118Z,11.66
2022-11-17T12:53:13.578Z,11.68
2022-11-17T12:56:35.524Z,11.70
2022-11-17T13:00:01.194Z,11.68
2022-11-17T13:02:54.639Z,11.64
2022-11-17T13:05:28.121Z,11.60
2022-11-17T13:08:13.771Z,11.58
2022-11-17T13:10:41.672Z,11.54
2022-11-17T13:13:21.075Z,11.51
2022-11-17T13:15:58.694Z,11.45
2022-11-17T13:18:39.204Z,11.38
2022-11-17T13:21:24.877Z,11.30
2022-11-17T13:23:53.502Z,11.23
2022-11-17T13:26:27.155Z,11.14
2022-11-17T13:29:12.395Z,11.05
2022-11-17T13:31:39.806Z,10.98
2022-11-17T13:34:16.697Z,10.92
2022-11-17T13:36:55.482Z,10.89
2022-11-17T13:39:27.012Z,10.87
2022-11-17T13:41:56.245Z,10.87
2022-11-17T13:44:28.222Z,10.86
2022-11-17T13:46:56.045Z,10.85
2022-11-17T13:49:39.492Z,10.84
2022-11-17T13:52:40.478Z,10.84
2022-11-17T13:55:10.403Z,10.83
2022-11-17T13:57:37.607Z,10.81
2022-11-17T14:00:05.340Z,10.78
2022-11-17T14:02:36.652Z,10.78
2022-11-17T14:05:13.238Z,10.75
2022-11-17T14:07:42.123Z,10.72
2022-11-17T14:10:21.253Z,10.70
2022-11-17T14:12:50.775Z,10.71
2022-11-17T14:15:26.754Z,10.69
2022-11-17T14:17:57.925Z,10.67
2022-11-17T14:20:24.778Z,10.67
2022-11-17T14:23:10.542Z,10.66
2022-11-17T14:25:46.299Z,10.63
2022-11-17T14:28:19.152Z,10.61
2022-11-17T14:31:04.222Z,10.57
2022-11-17T14:33:31.218Z,10.54
2022-11-17T14:35:59.924Z,10.53
2022-11-17T14:38:26.900Z,10.52
2022-11-17T14:40:54.161Z,10.50
2022-11-17T14:43:22.395Z,10.49
2022-11-17T14:45:50.680Z,10.48
2022-11-17T14:48:19.625Z,10.50
2022-11-17T14:50:47.664Z,10.50
2022-11-17T14:53:15.017Z,10.48
2022-11-17T14:55:41.960Z,10.47
2022-11-17T14:58:09.832Z,10.44
2022-11-17T15:00:37.102Z,10.41
2022-11-17T15:03:04.638Z,10.36
2022-11-17T15:05:31.963Z,10.31
2022-11-17T15:07:59.041Z,10.28
2022-11-17T15:10:26.034Z,10.25
2022-11-17T15:12:52.996Z,10.22
2022-11-17T15:15:19.940Z,10.19
2022-11-17T15:17:46.898Z,10.16
2022-11-17T15:20:14.029Z,10.13
2022-11-17T15:22:40.958Z,10.10
2022-11-17T15:25:08.569Z,10.07
2022-11-17T15:27:35.488Z,10.04
2022-11-17T15:30:02.609Z,10.02
2022-11-17T15:32:29.746Z,10.01
2022-11-17T15:34:56.696Z,9.99
2022-11-17T15:37:23.677Z,9.99
2022-11-17T15:39:50.610Z,9.98
2022-11-17T15:42:17.716Z,9.96
2022-11-17T15:44:44.693Z,9.97
2022-11-17T15:47:11.612Z,9.98
2022-11-17T15:49:38.564Z,9.97
2022-11-17T15:52:05.518Z,9.97
2022-11-17T15:54:32.848Z,9.97
2022-11-17T15:57:01.364Z,9.98
2022-11-17T15:59:28.444Z,9.99
2022-11-17T16:01:55.961Z,9.98
2022-11-17T16:04:22.953Z,9.98
2022-11-17T16:06:49.972Z,9.96
2022-11-17T16:09:17.480Z,9.96
2022-11-17T16:11:44.807Z,9.96
2022-11-17T16:14:11.854Z,9.98
2022-11-17T16:16:39.605Z,9.97
2022-11-17T16:19:07.047Z,9.99
2022-11-17T16:21:34.142Z,10.00
2022-11-17T16:24:02.008Z,10.01
2022-11-17T16:26:29.975Z,10.01
2022-11-17T16:28:59.395Z,10.03
2022-11-17T16:31:29.890Z,10.02
2022-11-17T16:34:10.315Z,10.02
2022-11-17T16:36:40.242Z,10.02
2022-11-17T16:39:13.399Z,10.01
2022-11-17T16:41:42.825Z,10.02
2022-11-17T16:44:13.468Z,10.01
2022-11-17T16:46:46.792Z,10.01
2022-11-17T16:49:17.367Z,9.99
2022-11-17T16:51:49.610Z,9.97
2022-11-17T16:54:17.898Z,9.97
2022-11-17T16:56:45.113Z,9.95
2022-11-17T16:59:12.334Z,9.94
2022-11-17T17:01:39.679Z,9.93
2022-11-17T17:04:10.006Z,9.91
2022-11-17T17:06:40.856Z,9.89
2022-11-17T17:09:10.657Z,9.90
2022-11-17T17:11:38.328Z,9.88
2022-11-17T17:14:09.236Z,9.86
2022-11-17T17:16:37.175Z,9.85
2022-11-17T17:19:07.224Z,9.82
2022-11-17T17:21:35.150Z,9.81
2022-11-17T17:24:02.569Z,9.79
2022-11-17T17:26:31.605Z,9.78
2022-11-17T17:29:00.861Z,9.77
2022-11-17T17:31:35.666Z,9.76
2022-11-17T17:34:04.081Z,9.75
2022-11-17T17:36:31.159Z,9.75
2022-11-17T17:39:01.670Z,9.73
2022-11-17T17:41:32.561Z,9.74
2022-11-17T17:44:05.166Z,9.73
2022-11-17T17:46:37.916Z,9.71
2022-11-17T17:49:05.672Z,9.72
2022-11-17T17:51:36.038Z,9.71
2022-11-17T17:54:03.093Z,9.70
2022-11-17T17:56:32.574Z,9.71
2022-11-17T17:58:59.698Z,9.69
2022-11-17T18:01:30.214Z,9.70
2022-11-17T18:04:04.798Z,9.68
2022-11-17T18:06:38.268Z,9.68
2022-11-17T18:09:07.533Z,9.67
2022-11-17T18:11:35.591Z,9.69
2022-11-17T18:14:03.895Z,9.68
2022-11-17T18:16:33.617Z,9.68
2022-11-17T18:19:05.192Z,9.66
2022-11-17T18:21:32.841Z,9.67
2022-11-17T18:24:01.970Z,9.66
2022-11-17T18:26:32.757Z,9.65
2022-11-17T18:29:04.947Z,9.65
2022-11-17T18:31:35.296Z,9.63
2022-11-17T18:34:12.922Z,9.62
2022-11-17T18:36:39.920Z,9.62
2022-11-17T18:39:06.955Z,9.62
2022-11-17T18:41:35.188Z,9.61
2022-11-17T18:44:02.673Z,9.59
2022-11-17T18:46:32.455Z,9.58
2022-11-17T18:49:00.326Z,9.58
2022-11-17T18:51:31.318Z,9.55
2022-11-17T18:54:01.291Z,9.54
2022-11-17T18:56:36.123Z,9.54
2022-11-17T18:59:12.144Z,9.54
2022-11-17T19:01:42.164Z,9.53
2022-11-17T19:04:12.268Z,9.55
2022-11-17T19:06:39.256Z,9.53
2022-11-17T19:09:06.731Z,9.54
2022-11-17T19:11:34.550Z,9.54
2022-11-17T19:14:02.602Z,9.53
2022-11-17T19:16:30.040Z,9.52
2022-11-17T19:18:57.921Z,9.52
2022-11-17T19:21:33.416Z,9.51
2022-11-17T19:24:04.317Z,9.51
2022-11-17T19:26:33.467Z,9.50
2022-11-17T19:29:12.660Z,9.50
2022-11-17T19:31:42.895Z,9.48
2022-11-17T19:34:09.991Z,9.47
2022-11-17T19:36:37.389Z,9.45
2022-11-17T19:39:04.495Z,9.46
2022-11-17T19:41:35.311Z,9.45
2022-11-17T19:44:05.678Z,9.44
2022-11-17T19:46:33.436Z,9.43
2022-11-17T19:49:00.763Z,9.42
2022-11-17T19:51:34.617Z,9.41
2022-11-17T19:54:04.656Z,9.40
2022-11-17T19:56:31.788Z,9.40
2022-11-17T19:58:59.044Z,9.40
2022-11-17T20:01:30.602Z,9.40
2022-11-17T20:04:02.605Z,9.38
2022-11-17T20:06:36.884Z,9.38
2022-11-17T20:09:12.531Z,9.38
2022-11-17T20:11:40.853Z,9.37
2022-11-17T20:14:08.020Z,9.38
2022-11-17T20:16:36.677Z,9.37
2022-11-17T20:19:04.153Z,9.38
2022-11-17T20:21:31.388Z,9.39
2022-11-17T20:24:00.262Z,9.37
2022-11-17T20:26:31.913Z,9.38
2022-11-17T20:29:00.680Z,9.40
2022-11-17T20:31:31.694Z,9.40
2022-11-17T20:34:00.526Z,9.40
2022-11-17T20:36:31.688Z,9.41
2022-11-17T20:39:06.149Z,9.40
2022-11-17T20:41:33.380Z,9.40
2022-11-17T20:44:01.698Z,9.40
2022-11-17T20:46:29.196Z,9.39
2022-11-17T20:48:56.205Z,9.39
2022-11-17T20:51:24.877Z,9.39
2022-11-17T20:53:52.034Z,9.39
2022-11-17T20:56:19.625Z,9.39
2022-11-17T20:58:46.702Z,9.40
2022-11-17T21:01:20.138Z,9.39
2022-11-17T21:03:47.954Z,9.38
2022-11-17T21:06:16.291Z,9.39
2022-11-17T21:08:44.858Z,9.36
2022-11-17T21:11:39.901Z,9.37
2022-11-17T21:14:09.901Z,9.37
2022-11-17T21:16:39.637Z,9.36
2022-11-17T21:19:08.104Z,9.36
2022-11-17T21:21:35.610Z,9.36
2022-11-17T21:24:03.269Z,9.35
2022-11-17T21:26:30.678Z,9.35
2022-11-17T21:29:03.190Z,9.34
2022-11-17T21:31:34.016Z,9.35
2022-11-17T21:34:05.087Z,9.32
2022-11-17T21:36:33.903Z,9.32
2022-11-17T21:39:01.100Z,9.32
2022-11-17T21:41:31.103Z,9.30
2022-11-17T21:44:00.564Z,9.30
2022-11-17T21:46:31.376Z,9.28
2022-11-17T21:49:00.502Z,9.28
2022-11-17T21:51:33.115Z,9.26
2022-11-17T21:54:03.189Z,9.25
2022-11-17T21:56:31.855Z,9.25
2022-11-17T21:59:10.970Z,9.26
2022-11-17T22:01:39.388Z,9.24
2022-11-17T22:04:06.427Z,9.23
2022-11-17T22:06:33.442Z,9.25
2022-11-17T22:09:00.416Z,9.24
2022-11-17T22:11:36.573Z,9.25
2022-11-17T22:14:19.357Z,9.23
2022-11-17T22:16:54.954Z,9.23
2022-11-17T22:19:24.537Z,9.23
2022-11-17T22:21:53.741Z,9.21
2022-11-17T22:24:22.952Z,9.21
2022-11-17T22:26:51.427Z,9.18
2022-11-17T22:29:21.997Z,9.19
2022-11-17T22:31:49.805Z,9.17
2022-11-17T22:34:18.158Z,9.15
2022-11-17T22:36:45.280Z,9.15
2022-11-17T22:39:12.291Z,9.14
2022-11-17T22:41:40.309Z,9.10
2022-11-17T22:44:07.402Z,9.10
2022-11-17T22:46:36.031Z,9.06
2022-11-17T22:49:03.260Z,9.05
2022-11-17T22:51:48.509Z,9.02
2022-11-17T22:54:15.520Z,8.99
2022-11-17T22:56:42.821Z,8.98
2022-11-17T22:59:09.887Z,8.97
2022-11-17T23:01:37.115Z,8.93
2022-11-17T23:04:04.320Z,8.91
2022-11-17T23:06:31.274Z,8.91
2022-11-17T23:08:58.610Z,8.88
2022-11-17T23:11:41.899Z,8.88
2022-11-17T23:14:14.538Z,8.86
2022-11-17T23:16:42.084Z,8.84
2022-11-17T23:19:13.705Z,8.84
2022-11-17T23:21:41.285Z,8.84
2022-11-17T23:24:12.835Z,8.83
2022-11-17T23:26:40.569Z,8.83
2022-11-17T23:29:09.101Z,8.82
2022-11-17T23:31:36.085Z,8.81
2022-11-17T23:34:03.121Z,8.81
2022-11-17T23:36:30.230Z,8.82
2022-11-17T23:38:57.727Z,8.83
2022-11-17T23:41:24.713Z,8.82
2022-11-17T23:43:53.931Z,8.82
2022-11-17T23:46:23.913Z,8.81
2022-11-17T23:48:51.234Z,8.81
2022-11-17T23:51:21.354Z,8.81
2022-11-17T23:53:49.347Z,8.82
2022-11-17T23:56:18.841Z,8.80
2022-11-17T23:58:46.162Z,8.79
